createdAt,value
2022-11-30T00:01:58.046Z,11.82
2022-11-30T00:04:27.517Z,11.99
2022-11-30T00:06:57.362Z,11.67
2022-11-30T00:09:25.681Z,11.41
2022-11-30T00:11:55.103Z,11.55
2022-11-30T00:14:23.498Z,11.76
2022-11-30T00:16:52.020Z,11.72
2022-11-30T00:19:20.480Z,11.90
2022-11-30T00:21:49.151Z,11.84
2022-11-30T00:24:17.492Z,11.97
2022-11-30T00:26:45.872Z,11.95
2022-11-30T00:29:14.228Z,12.00
2022-11-30T00:31:42.580Z,12.08
2022-11-30T00:34:11.020Z,12.11
2022-11-30T00:36:39.524Z,12.00
2022-11-30T00:39:08.440Z,11.98
2022-11-30T00:41:36.820Z,12.14
2022-11-30T00:44:05.426Z,12.08
2022-11-30T00:46:33.973Z,11.82
2022-11-30T00:49:02.424Z,11.97
2022-11-30T00:51:30.772Z,12.01
2022-11-30T00:53:59.187Z,12.06
2022-11-30T00:56:27.608Z,11.84
2022-11-30T00:58:55.926Z,11.83
2022-11-30T01:01:24.422Z,11.61
2022-11-30T01:03:52.904Z,10.82
2022-11-30T01:06:21.327Z,11.67
2022-11-30T01:08:49.940Z,11.78
2022-11-30T01:11:23.935Z,11.89
2022-11-30T01:13:52.868Z,11.66
2022-11-30T01:16:33.535Z,11.51
2022-11-30T01:19:02.264Z,11.75
2022-11-30T01:21:30.831Z,11.76
2022-11-30T01:23:59.232Z,11.87
2022-11-30T01:26:27.916Z,11.92
2022-11-30T01:28:56.584Z,11.38
2022-11-30T01:31:25.199Z,11.52
2022-11-30T01:33:55.503Z,11.51
2022-11-30T01:36:26.067Z,11.81
2022-11-30T01:38:57.153Z,12.10
2022-11-30T01:41:31.594Z,12.20
2022-11-30T01:44:06.019Z,12.27
2022-11-30T01:46:40.372Z,12.20
2022-11-30T01:49:08.657Z,12.28
2022-11-30T01:51:48.128Z,12.37
2022-11-30T01:54:22.539Z,12.38
2022-11-30T01:56:57.198Z,12.31
2022-11-30T01:59:25.920Z,12.28
2022-11-30T02:01:55.403Z,12.09
2022-11-30T02:04:28.431Z,11.94
2022-11-30T02:06:58.356Z,12.13
2022-11-30T02:09:28.857Z,11.89
2022-11-30T02:11:57.343Z,12.06
2022-11-30T02:14:36.748Z,12.33
2022-11-30T02:17:28.307Z,12.31
2022-11-30T02:20:15.732Z,12.01
2022-11-30T02:22:58.015Z,12.15
2022-11-30T02:25:35.538Z,11.98
2022-11-30T02:28:25.716Z,11.99
2022-11-30T02:30:56.638Z,12.28
2022-11-30T02:33:29.709Z,12.51
2022-11-30T02:35:59.467Z,12.56
2022-11-30T02:38:29.222Z,12.38
2022-11-30T02:40:57.625Z,12.42
2022-11-30T02:43:30.491Z,12.59
2022-11-30T02:46:11.415Z,12.61
2022-11-30T02:49:10.866Z,12.45
2022-11-30T02:51:41.751Z,12.49
2022-11-30T02:54:10.356Z,12.45
2022-11-30T02:56:38.718Z,12.62
2022-11-30T02:59:07.149Z,12.41
2022-11-30T03:01:36.505Z,12.43
2022-11-30T03:04:05.070Z,12.38
2022-11-30T03:06:33.459Z,12.19
2022-11-30T03:09:02.201Z,12.25
2022-11-30T03:11:31.693Z,12.34
2022-11-30T03:14:00.380Z,12.21
2022-11-30T03:16:28.910Z,12.28
2022-11-30T03:18:58.825Z,11.77
2022-11-30T03:21:28.381Z,12.14
2022-11-30T03:23:56.791Z,12.21
2022-11-30T03:26:25.209Z,12.26
2022-11-30T03:28:53.681Z,12.38
2022-11-30T03:31:23.350Z,12.30
2022-11-30T03:33:51.927Z,12.29
2022-11-30T03:36:20.456Z,12.31
2022-11-30T03:38:49.103Z,12.27
2022-11-30T03:41:17.934Z,12.26
2022-11-30T03:43:47.195Z,12.36
2022-11-30T03:46:16.201Z,12.22
2022-11-30T03:48:44.745Z,12.36
2022-11-30T03:51:13.726Z,12.45
2022-11-30T03:53:42.434Z,12.41
2022-11-30T03:58:57.217Z,12.44
2022-11-30T04:01:26.594Z,12.48
2022-11-30T04:03:56.156Z,12.44
2022-11-30T04:06:24.838Z,12.38
2022-11-30T04:08:53.363Z,12.28
2022-11-30T04:11:21.750Z,12.24
2022-11-30T04:13:50.235Z,12.21
2022-11-30T04:16:18.723Z,12.24
2022-11-30T04:18:47.254Z,12.17
2022-11-30T04:21:15.682Z,12.27
2022-11-30T04:23:44.248Z,12.37
2022-11-30T04:26:14.369Z,12.50
2022-11-30T04:28:43.518Z,12.65
2022-11-30T04:31:12.506Z,12.61
2022-11-30T04:33:41.081Z,12.63
2022-11-30T04:36:17.757Z,12.76
2022-11-30T04:38:47.303Z,12.66
2022-11-30T04:41:15.696Z,12.53
2022-11-30T04:43:44.296Z,12.40
2022-11-30T04:46:12.892Z,12.24
2022-11-30T04:48:41.285Z,12.30
2022-11-30T04:51:09.851Z,12.38
2022-11-30T04:53:38.915Z,12.42
2022-11-30T04:56:09.088Z,12.48
2022-11-30T04:58:38.889Z,12.38
2022-11-30T05:01:07.690Z,12.21
2022-11-30T05:03:36.482Z,12.10
2022-11-30T05:06:05.073Z,12.01
2022-11-30T05:08:33.532Z,11.94
2022-11-30T05:11:02.040Z,11.94
2022-11-30T05:13:30.570Z,12.01
2022-11-30T05:16:00.076Z,12.06
2022-11-30T05:18:29.372Z,12.05
2022-11-30T05:20:57.743Z,11.95
2022-11-30T05:23:26.175Z,11.94
2022-11-30T05:25:54.943Z,11.93
2022-11-30T05:28:23.394Z,11.90
2022-11-30T05:30:51.852Z,11.96
2022-11-30T05:33:20.283Z,11.94
2022-11-30T05:35:48.756Z,11.94
2022-11-30T05:38:17.367Z,11.96
2022-11-30T05:40:45.856Z,12.04
2022-11-30T05:43:14.453Z,12.23
2022-11-30T05:45:42.943Z,12.29
2022-11-30T05:48:11.389Z,12.32
2022-11-30T05:50:39.835Z,12.39
2022-11-30T05:53:08.262Z,12.31
2022-11-30T05:55:36.811Z,12.30
2022-11-30T05:58:05.681Z,12.34
2022-11-30T06:00:34.149Z,12.16
2022-11-30T06:03:02.963Z,12.00
2022-11-30T06:05:34.536Z,11.88
2022-11-30T06:08:03.073Z,11.79
2022-11-30T06:10:31.656Z,11.79
2022-11-30T06:13:06.598Z,11.75
2022-11-30T06:15:36.987Z,11.75
2022-11-30T06:18:06.557Z,11.77
2022-11-30T06:20:35.089Z,11.97
2022-11-30T06:23:04.990Z,12.20
2022-11-30T06:25:33.559Z,12.13
2022-11-30T06:28:02.206Z,12.05
2022-11-30T06:30:30.768Z,11.89
2022-11-30T06:32:59.178Z,11.85
2022-11-30T06:35:27.736Z,11.89
2022-11-30T06:37:57.369Z,11.81
2022-11-30T06:40:26.057Z,11.88
2022-11-30T06:42:54.884Z,11.84
2022-11-30T06:45:23.350Z,11.72
2022-11-30T06:47:55.062Z,11.79
2022-11-30T06:50:23.890Z,11.82
2022-11-30T06:52:52.381Z,11.64
2022-11-30T06:55:20.753Z,11.60
2022-11-30T06:57:49.650Z,11.81
2022-11-30T07:00:18.975Z,11.79
2022-11-30T07:02:47.497Z,11.72
2022-11-30T07:05:15.913Z,11.63
2022-11-30T07:07:44.352Z,11.50
2022-11-30T07:10:17.156Z,11.55
2022-11-30T07:12:49.054Z,11.63
2022-11-30T07:15:17.920Z,11.55
2022-11-30T07:17:46.422Z,11.57
2022-11-30T07:20:14.942Z,11.57
2022-11-30T07:22:43.292Z,11.60
2022-11-30T07:25:30.185Z,11.58
2022-11-30T07:27:58.606Z,11.46
2022-11-30T07:30:27.086Z,11.41
2022-11-30T07:32:55.495Z,11.48
2022-11-30T07:35:23.929Z,11.50
2022-11-30T07:37:52.386Z,11.51
2022-11-30T07:40:20.738Z,11.47
2022-11-30T07:42:55.383Z,11.52
2022-11-30T07:45:23.912Z,11.57
2022-11-30T07:47:52.309Z,11.51
2022-11-30T07:50:20.777Z,11.41
2022-11-30T07:52:49.215Z,11.40
2022-11-30T07:55:19.920Z,11.42
2022-11-30T07:57:48.648Z,11.49
2022-11-30T08:00:17.127Z,11.52
2022-11-30T08:02:45.540Z,11.40
2022-11-30T08:05:13.968Z,11.44
2022-11-30T08:07:42.480Z,11.41
2022-11-30T08:10:12.258Z,11.59
2022-11-30T08:12:40.614Z,11.66
2022-11-30T08:15:19.749Z,11.58
2022-11-30T08:17:52.040Z,11.64
2022-11-30T08:20:21.459Z,11.69
2022-11-30T08:22:51.823Z,11.65
2022-11-30T08:25:20.291Z,11.61
2022-11-30T08:27:48.725Z,11.62
2022-11-30T08:30:17.422Z,11.55
2022-11-30T08:32:45.950Z,11.57
2022-11-30T08:35:14.445Z,11.68
2022-11-30T08:37:43.019Z,11.61
2022-11-30T08:40:11.776Z,11.64
2022-11-30T08:42:40.205Z,11.69
2022-11-30T08:45:09.071Z,11.77
2022-11-30T08:47:37.484Z,11.76
2022-11-30T08:50:06.463Z,11.79
2022-11-30T08:52:34.918Z,11.91
2022-11-30T08:55:03.449Z,11.94
2022-11-30T08:57:32.019Z,11.87
2022-11-30T09:00:00.509Z,11.69
2022-11-30T09:02:29.038Z,11.61
2022-11-30T09:04:57.504Z,11.82
2022-11-30T09:07:26.083Z,11.90
2022-11-30T09:09:54.491Z,11.83
2022-11-30T09:12:22.896Z,11.95
2022-11-30T09:14:57.771Z,11.91
2022-11-30T09:17:26.909Z,11.95
2022-11-30T09:19:56.481Z,12.03
2022-11-30T09:22:25.398Z,11.99
2022-11-30T09:24:54.928Z,12.03
2022-11-30T09:27:24.230Z,11.64
2022-11-30T09:29:52.762Z,11.70
2022-11-30T09:32:21.229Z,11.93
2022-11-30T09:34:50.826Z,12.00
2022-11-30T09:37:19.680Z,12.01
2022-11-30T09:39:48.117Z,11.86
2022-11-30T09:42:42.340Z,12.19
2022-11-30T09:45:19.098Z,12.05
2022-11-30T09:48:14.024Z,12.08
2022-11-30T09:50:47.229Z,12.02
2022-11-30T09:53:27.787Z,11.95
2022-11-30T09:56:00.501Z,12.34
2022-11-30T09:59:03.435Z,11.59
2022-11-30T10:01:33.104Z,12.17
2022-11-30T10:04:02.565Z,12.30
2022-11-30T10:06:51.222Z,11.74
2022-11-30T10:13:14.771Z,12.36
2022-11-30T10:16:03.044Z,12.22
2022-11-30T10:18:47.621Z,12.27
2022-11-30T10:21:36.978Z,12.19
2022-11-30T10:24:35.802Z,12.31
2022-11-30T10:27:41.320Z,12.44
2022-11-30T10:30:19.116Z,12.44
2022-11-30T10:33:00.154Z,12.49
2022-11-30T10:35:38.819Z,12.69
2022-11-30T10:38:29.509Z,12.36
2022-11-30T10:41:09.921Z,11.95
2022-11-30T10:44:04.893Z,12.12
2022-11-30T10:46:38.560Z,11.42
2022-11-30T10:49:14.343Z,11.64
2022-11-30T10:51:50.414Z,12.18
2022-11-30T10:54:21.909Z,11.92
2022-11-30T10:56:50.327Z,12.02
2022-11-30T10:59:24.161Z,12.28
2022-11-30T11:01:53.758Z,12.67
2022-11-30T11:04:25.158Z,12.68
2022-11-30T11:06:57.698Z,11.77
2022-11-30T11:09:46.783Z,12.33
2022-11-30T11:12:24.508Z,11.95
2022-11-30T11:15:08.906Z,12.18
2022-11-30T11:17:37.457Z,12.45
2022-11-30T11:20:31.781Z,12.79
2022-11-30T11:23:00.954Z,12.68
2022-11-30T11:25:37.400Z,12.99
2022-11-30T11:28:15.358Z,12.53
2022-11-30T11:30:44.039Z,11.38
2022-11-30T11:33:12.498Z,11.53
2022-11-30T11:35:43.514Z,11.71
2022-11-30T11:38:41.082Z,11.85
2022-11-30T11:41:16.937Z,12.13
2022-11-30T11:44:04.432Z,11.78
2022-11-30T11:46:36.343Z,12.35
2022-11-30T11:49:20.807Z,12.82
2022-11-30T11:52:03.341Z,12.69
2022-11-30T11:54:39.351Z,12.59
2022-11-30T11:57:14.749Z,12.00
2022-11-30T12:00:05.458Z,12.53
2022-11-30T12:03:22.376Z,12.31
2022-11-30T12:05:58.435Z,11.78
2022-11-30T12:08:43.317Z,12.10
2022-11-30T12:11:18.169Z,11.77
2022-11-30T12:13:47.089Z,11.74
2022-11-30T12:16:32.092Z,12.28
2022-11-30T12:19:08.689Z,12.26
2022-11-30T12:22:27.690Z,12.17
2022-11-30T12:25:14.840Z,12.10
2022-11-30T12:28:18.328Z,12.30
2022-11-30T12:30:56.617Z,11.96
2022-11-30T12:34:02.961Z,12.27
2022-11-30T12:36:37.470Z,12.38
2022-11-30T12:39:10.749Z,12.22
2022-11-30T12:41:47.705Z,12.24
2022-11-30T12:44:40.290Z,11.70
2022-11-30T12:47:26.612Z,11.90
2022-11-30T12:50:10.423Z,12.41
2022-11-30T12:52:54.047Z,12.63
2022-11-30T12:55:57.990Z,12.79
2022-11-30T12:58:59.311Z,12.64
2022-11-30T13:01:41.475Z,12.55
2022-11-30T13:04:27.855Z,12.66
2022-11-30T13:07:01.193Z,12.58
2022-11-30T13:10:00.545Z,12.94
2022-11-30T13:12:36.786Z,12.89
2022-11-30T13:15:15.723Z,12.50
2022-11-30T13:17:46.467Z,12.40
2022-11-30T13:20:28.186Z,12.70
2022-11-30T13:23:03.064Z,12.55
2022-11-30T13:26:09.420Z,12.33
2022-11-30T13:28:53.060Z,11.99
2022-11-30T13:31:34.229Z,11.74
2022-11-30T13:34:02.910Z,11.86
2022-11-30T13:36:39.398Z,12.37
2022-11-30T13:39:14.497Z,11.66
2022-11-30T13:42:02.900Z,12.26
2022-11-30T13:44:31.655Z,11.91
2022-11-30T13:47:06.327Z,11.50
2022-11-30T13:49:36.595Z,12.48
2022-11-30T13:52:23.418Z,12.70
2022-11-30T13:54:54.563Z,12.53
2022-11-30T13:57:29.177Z,12.43
2022-11-30T14:00:02.740Z,12.66
2022-11-30T14:02:34.493Z,12.64
2022-11-30T14:05:22.693Z,13.08
2022-11-30T14:08:00.123Z,13.19
2022-11-30T14:10:39.016Z,12.89
2022-11-30T14:13:10.487Z,12.63
2022-11-30T14:15:38.887Z,12.45
2022-11-30T14:18:10.373Z,12.43
2022-11-30T14:20:51.715Z,12.34
2022-11-30T14:23:40.793Z,12.59
2022-11-30T14:26:12.791Z,12.55
2022-11-30T14:28:50.126Z,12.74
2022-11-30T14:31:24.127Z,12.92
2022-11-30T14:34:20.445Z,12.79
2022-11-30T14:36:58.249Z,12.80
2022-11-30T14:39:41.878Z,12.74
2022-11-30T14:42:23.796Z,12.95
2022-11-30T14:44:53.267Z,12.64
2022-11-30T14:47:24.509Z,12.65
2022-11-30T14:49:56.244Z,12.23
2022-11-30T14:52:42.963Z,12.55
2022-11-30T14:55:31.217Z,11.79
2022-11-30T14:58:16.674Z,12.20
2022-11-30T15:00:46.748Z,12.32
2022-11-30T15:03:24.928Z,11.98
2022-11-30T15:05:56.899Z,12.29
2022-11-30T15:08:51.901Z,12.52
2022-11-30T15:11:21.394Z,12.20
2022-11-30T15:13:53.855Z,11.36
2022-11-30T15:16:25.368Z,11.91
2022-11-30T15:18:56.578Z,12.36
2022-11-30T15:21:30.741Z,12.48
2022-11-30T15:24:01.425Z,11.72
2022-11-30T15:27:08.777Z,12.36
2022-11-30T15:29:59.736Z,12.19
2022-11-30T15:32:29.085Z,12.46
2022-11-30T15:35:02.057Z,12.28
2022-11-30T15:37:33.483Z,12.08
2022-11-30T15:40:05.532Z,11.91
2022-11-30T15:42:40.303Z,12.00
2022-11-30T15:45:31.858Z,11.60
2022-11-30T15:48:00.906Z,11.29
2022-11-30T15:50:29.238Z,10.44
2022-11-30T15:53:03.881Z,11.14
2022-11-30T15:55:41.361Z,11.49
2022-11-30T15:58:47.205Z,11.61
2022-11-30T16:01:15.808Z,11.58
2022-11-30T16:03:59.565Z,11.69
2022-11-30T16:06:29.733Z,11.25
2022-11-30T16:09:03.066Z,11.43
2022-11-30T16:11:33.358Z,11.18
2022-11-30T16:14:02.008Z,11.20
2022-11-30T16:16:33.042Z,11.30
2022-11-30T16:19:01.578Z,11.37
2022-11-30T16:21:30.093Z,11.64
2022-11-30T16:23:58.558Z,11.37
2022-11-30T16:26:50.033Z,11.37
2022-11-30T16:29:15.490Z,11.49
2022-11-30T16:31:43.974Z,11.60
2022-11-30T16:34:13.477Z,11.52
2022-11-30T16:36:41.881Z,11.73
2022-11-30T16:39:12.787Z,11.92
2022-11-30T16:41:41.257Z,11.84
2022-11-30T16:44:14.203Z,11.72
2022-11-30T16:46:42.794Z,11.91
2022-11-30T16:49:11.397Z,11.93
2022-11-30T16:51:41.781Z,11.59
2022-11-30T16:54:13.925Z,11.67
2022-11-30T16:56:43.891Z,11.69
2022-11-30T16:59:16.652Z,11.92
2022-11-30T17:01:48.396Z,11.88
2022-11-30T17:04:20.707Z,11.50
2022-11-30T17:06:50.882Z,11.90
2022-11-30T17:09:21.229Z,12.01
2022-11-30T17:11:50.945Z,11.84
2022-11-30T17:14:21.035Z,11.93
2022-11-30T17:16:49.665Z,12.03
2022-11-30T17:19:18.235Z,12.06
2022-11-30T17:21:48.316Z,11.93
2022-11-30T17:24:16.764Z,11.89
2022-11-30T17:26:45.202Z,11.82
2022-11-30T17:29:13.614Z,11.49
2022-11-30T17:31:42.058Z,11.69
2022-11-30T17:34:10.504Z,11.51
2022-11-30T17:36:38.925Z,11.48
2022-11-30T17:39:08.197Z,11.62
2022-11-30T17:41:36.607Z,11.87
2022-11-30T17:44:05.003Z,11.64
2022-11-30T17:46:33.440Z,11.38
2022-11-30T17:49:01.833Z,11.34
2022-11-30T17:51:30.825Z,11.58
2022-11-30T17:53:59.387Z,11.38
2022-11-30T17:56:27.772Z,11.61
2022-11-30T17:58:56.164Z,11.72
2022-11-30T18:01:26.902Z,11.43
2022-11-30T18:03:56.166Z,11.74
2022-11-30T18:06:24.884Z,11.84
2022-11-30T18:08:53.404Z,11.06
2022-11-30T18:11:24.072Z,11.58
2022-11-30T18:13:54.938Z,11.75
2022-11-30T18:16:32.144Z,11.93
2022-11-30T18:19:00.664Z,12.06
2022-11-30T18:21:29.772Z,11.57
2022-11-30T18:23:59.129Z,11.71
2022-11-30T18:26:28.116Z,10.68
2022-11-30T18:28:58.781Z,11.12
2022-11-30T18:31:29.139Z,11.61
2022-11-30T18:33:59.653Z,11.72
2022-11-30T18:36:28.416Z,11.56
2022-11-30T18:38:58.169Z,11.25
2022-11-30T18:41:28.532Z,11.41
2022-11-30T18:43:57.797Z,11.54
2022-11-30T18:46:26.670Z,11.37
2022-11-30T18:48:56.322Z,11.17
2022-11-30T18:51:29.473Z,11.01
2022-11-30T18:54:03.254Z,11.27
2022-11-30T18:56:35.119Z,11.34
2022-11-30T18:59:06.778Z,11.36
2022-11-30T19:01:36.436Z,11.60
2022-11-30T19:04:07.549Z,11.56
2022-11-30T19:06:38.459Z,10.72
2022-11-30T19:09:09.824Z,11.23
2022-11-30T19:11:39.621Z,11.27
2022-11-30T19:14:08.303Z,11.22
2022-11-30T19:16:36.753Z,11.19
2022-11-30T19:19:07.593Z,11.47
2022-11-30T19:21:36.575Z,10.65
2022-11-30T19:24:05.329Z,10.93
2022-11-30T19:26:33.740Z,11.14
2022-11-30T19:29:03.218Z,11.37
2022-11-30T19:31:31.607Z,11.29
2022-11-30T19:33:59.978Z,11.17
2022-11-30T19:36:29.264Z,11.08
2022-11-30T19:38:59.524Z,11.25
2022-11-30T19:41:28.486Z,11.32
2022-11-30T19:44:03.229Z,11.41
2022-11-30T19:46:33.185Z,11.43
2022-11-30T19:49:02.167Z,11.37
2022-11-30T19:51:31.360Z,11.16
2022-11-30T19:54:00.321Z,11.15
2022-11-30T19:56:31.156Z,11.27
2022-11-30T19:59:04.685Z,11.09
2022-11-30T20:01:35.066Z,10.87
2022-11-30T20:04:04.487Z,11.23
2022-11-30T20:06:36.326Z,11.23
2022-11-30T20:09:08.381Z,11.49
2022-11-30T20:11:37.950Z,11.31
2022-11-30T20:14:06.464Z,11.07
2022-11-30T20:16:35.828Z,11.06
2022-11-30T20:19:04.294Z,11.10
2022-11-30T20:21:35.034Z,11.29
2022-11-30T20:24:08.979Z,11.22
2022-11-30T20:26:40.443Z,11.12
2022-11-30T20:29:14.361Z,10.96
2022-11-30T20:31:45.031Z,11.16
2022-11-30T20:34:13.561Z,11.09
2022-11-30T20:36:42.009Z,11.02
2022-11-30T20:39:13.068Z,11.17
2022-11-30T20:41:42.294Z,11.29
2022-11-30T20:44:13.735Z,11.05
2022-11-30T20:46:42.471Z,10.99
2022-11-30T20:49:19.147Z,11.41
2022-11-30T20:51:48.431Z,11.42
2022-11-30T20:54:17.496Z,11.19
2022-11-30T20:56:50.105Z,11.35
2022-11-30T20:59:23.415Z,11.39
2022-11-30T21:01:54.146Z,11.09
2022-11-30T21:04:25.626Z,10.93
2022-11-30T21:06:54.638Z,11.31
2022-11-30T21:09:24.026Z,11.42
2022-11-30T21:11:52.489Z,11.03
2022-11-30T21:14:21.028Z,10.49
2022-11-30T21:16:49.897Z,10.53
2022-11-30T21:19:18.333Z,10.99
2022-11-30T21:21:46.756Z,10.89
2022-11-30T21:24:15.190Z,10.78
2022-11-30T21:26:43.911Z,11.02
2022-11-30T21:29:15.095Z,11.12
2022-11-30T21:31:43.680Z,10.98
2022-11-30T21:34:13.509Z,11.05
2022-11-30T21:36:42.124Z,10.99
2022-11-30T21:39:13.825Z,11.08
2022-11-30T21:41:43.550Z,11.21
2022-11-30T21:44:14.886Z,11.05
2022-11-30T21:46:47.465Z,11.25
2022-11-30T21:49:16.063Z,10.98
2022-11-30T21:51:45.570Z,10.77
2022-11-30T21:54:14.294Z,10.97
2022-11-30T21:56:44.035Z,10.75
2022-11-30T21:59:14.321Z,10.71
2022-11-30T22:01:44.114Z,10.79
2022-11-30T22:04:14.310Z,10.86
2022-11-30T22:06:43.307Z,10.85
2022-11-30T22:09:15.001Z,11.25
2022-11-30T22:11:45.290Z,11.19
2022-11-30T22:14:16.390Z,10.48
2022-11-30T22:16:45.570Z,10.53
2022-11-30T22:19:14.086Z,10.53
2022-11-30T22:21:49.390Z,10.76
2022-11-30T22:24:18.648Z,10.93
2022-11-30T22:26:49.033Z,10.88
2022-11-30T22:29:20.609Z,11.18
2022-11-30T22:31:52.837Z,11.45
2022-11-30T22:34:21.260Z,11.31
2022-11-30T22:36:49.795Z,11.06
2022-11-30T22:39:20.548Z,11.03
2022-11-30T22:41:55.049Z,11.13
2022-11-30T22:44:26.349Z,10.22
2022-11-30T22:46:55.224Z,10.09
2022-11-30T22:49:24.065Z,10.72
2022-11-30T22:51:52.566Z,10.88
2022-11-30T22:54:20.986Z,10.02
2022-11-30T22:56:49.502Z,10.61
2022-11-30T22:59:17.964Z,9.89
2022-11-30T23:01:49.444Z,10.14
2022-11-30T23:04:20.607Z,10.06
2022-11-30T23:06:50.229Z,10.47
2022-11-30T23:09:21.478Z,10.30
2022-11-30T23:11:51.115Z,9.98
2022-11-30T23:14:19.895Z,10.46
2022-11-30T23:16:48.464Z,10.04
2022-11-30T23:19:18.183Z,10.24
2022-11-30T23:21:46.675Z,10.27
2022-11-30T23:24:20.452Z,9.71
2022-11-30T23:26:49.432Z,10.02
2022-11-30T23:29:18.104Z,9.69
2022-11-30T23:31:47.714Z,10.07
2022-11-30T23:34:21.533Z,10.54
2022-11-30T23:36:50.700Z,10.62
2022-11-30T23:39:19.827Z,10.78
2022-11-30T23:41:48.445Z,10.43
2022-11-30T23:44:16.906Z,10.41
2022-11-30T23:46:45.457Z,10.39
2022-11-30T23:49:14.308Z,10.20
2022-11-30T23:51:43.096Z,9.96
2022-11-30T23:54:11.734Z,10.52
2022-11-30T23:56:40.132Z,10.11
2022-11-30T23:59:09.613Z,10.18
